Time;durP1;ratioP1;P1;durP2;ratioP2;P2;SDS_P1;SDS_P2;PMS_P1;PMS_P2;Temp;Humidity;BMP_temperature;BMP_pressure;BME280_temperature;BME280_humidity;BME280_pressure;Samples;Min_cycle;Max_cycle;Signal;HPM_P1;HPM_P2
2021/04/06 00:01:53;;;;;;;51.55;19.48;;;-0.50;99.90;;;;;;4878768;29;20045;-74
2021/04/06 00:04:22;;;;;;;42.40;19.50;;;-0.50;99.90;;;;;;4865031;29;20140;-75
2021/04/06 00:06:54;;;;;;;54.63;23.13;;;-0.50;99.90;;;;;;4866178;29;20049;-75
2021/04/06 00:09:23;;;;;;;45.17;21.75;;;-0.50;99.90;;;;;;4868356;29;20060;-74
2021/04/06 00:11:53;;;;;;;58.45;25.45;;;-0.50;99.90;;;;;;4867549;29;20053;-75
2021/04/06 00:14:21;;;;;;;47.60;22.33;;;-0.40;99.90;;;;;;4890751;29;20201;-76
2021/04/06 00:16:49;;;;;;;76.53;25.98;;;-0.40;99.90;;;;;;4851450;29;20071;-75
2021/04/06 00:19:18;;;;;;;51.75;21.35;;;-0.40;99.90;;;;;;4857987;29;20089;-74
2021/04/06 00:21:50;;;;;;;51.70;23.10;;;-0.40;99.90;;;;;;4886987;29;20063;-74
2021/04/06 00:24:21;;;;;;;56.42;24.13;;;-0.40;99.90;;;;;;4885612;29;20057;-74
2021/04/06 00:26:54;;;;;;;55.40;22.73;;;-0.40;99.90;;;;;;4886533;29;20511;-74
2021/04/06 00:29:24;;;;;;;41.30;19.98;;;-0.40;99.90;;;;;;4901868;29;20045;-74
2021/04/06 00:31:52;;;;;;;45.28;20.95;;;-0.40;99.90;;;;;;4878844;29;20052;-75
2021/04/06 00:34:21;;;;;;;52.53;22.45;;;-0.40;99.90;;;;;;4898096;29;20084;-75
2021/04/06 00:36:53;;;;;;;49.03;21.50;;;-0.40;99.90;;;;;;4867019;29;20065;-74
2021/04/06 00:39:27;;;;;;;45.72;19.95;;;-0.40;99.90;;;;;;4889233;29;20147;-74
2021/04/06 00:42:14;;;;;;;44.25;19.73;;;-0.40;99.90;;;;;;4871546;29;20048;-74
2021/04/06 00:44:48;;;;;;;40.65;17.88;;;-0.30;99.90;;;;;;4867250;29;20053;-76
2021/04/06 00:47:26;;;;;;;42.25;19.13;;;-0.30;99.90;;;;;;4885385;29;20060;-77
2021/04/06 00:50:00;;;;;;;37.55;16.95;;;-0.30;99.90;;;;;;4874278;29;20409;-74
2021/04/06 00:52:28;;;;;;;36.90;16.83;;;-0.20;99.90;;;;;;4865668;29;20741;-74
2021/04/06 00:54:58;;;;;;;36.03;15.45;;;-0.20;99.90;;;;;;4874880;29;20195;-74
2021/04/06 00:57:26;;;;;;;30.75;14.45;;;-0.20;99.90;;;;;;4864119;29;20139;-74
2021/04/06 01:00:16;;;;;;;34.35;12.70;;;-0.20;99.90;;;;;;4888671;29;20056;-76
2021/04/06 01:03:01;;;;;;;28.38;12.15;;;-0.10;99.90;;;;;;4872740;29;20057;-73
2021/04/06 01:05:29;;;;;;;16.55;8.77;;;-0.10;99.90;;;;;;4881629;29;20057;-73
2021/04/06 01:07:56;;;;;;;23.02;8.57;;;-0.20;99.90;;;;;;4866141;29;20059;-74
2021/04/06 01:10:26;;;;;;;14.52;6.90;;;-0.20;99.90;;;;;;4882496;29;20056;-74
2021/04/06 01:12:56;;;;;;;20.23;7.82;;;-0.30;99.90;;;;;;4890575;29;20530;-74
2021/04/06 01:15:25;;;;;;;13.20;6.47;;;-0.30;99.90;;;;;;4882562;29;20060;-74
2021/04/06 01:17:52;;;;;;;20.08;6.75;;;-0.30;99.90;;;;;;4848386;29;20531;-74
2021/04/06 01:20:20;;;;;;;15.07;6.65;;;-0.30;99.90;;;;;;4871068;29;20076;-74
2021/04/06 01:22:52;;;;;;;16.75;8.00;;;-0.30;99.90;;;;;;4865746;29;20139;-74
2021/04/06 01:25:24;;;;;;;19.67;7.10;;;-0.30;99.90;;;;;;4897438;29;20052;-75
2021/04/06 01:28:08;;;;;;;20.90;7.75;;;-0.20;99.90;;;;;;4883323;29;20246;-74
2021/04/06 01:30:43;;;;;;;13.05;5.90;;;-0.20;99.90;;;;;;4856798;29;20642;-73
2021/04/06 01:33:15;;;;;;;13.20;6.03;;;-0.30;99.90;;;;;;4878022;29;20112;-74
2021/04/06 01:35:47;;;;;;;20.30;8.77;;;-0.30;99.90;;;;;;4867098;29;20049;-75
2021/04/06 01:38:14;;;;;;;12.23;6.20;;;-0.30;99.90;;;;;;4863827;29;20063;-75
2021/04/06 01:40:42;;;;;;;18.15;6.50;;;-0.30;99.90;;;;;;4871084;29;20159;-75
2021/04/06 01:43:11;;;;;;;10.48;4.30;;;-0.30;99.90;;;;;;4892214;29;20068;-76
2021/04/06 01:45:43;;;;;;;11.00;4.60;;;-0.40;99.90;;;;;;4883374;29;20949;-75
2021/04/06 01:48:14;;;;;;;9.05;4.82;;;-0.40;99.90;;;;;;4887160;29;20057;-76
2021/04/06 01:50:42;;;;;;;13.07;5.03;;;-0.40;99.90;;;;;;4870478;29;20049;-76
2021/04/06 01:53:10;;;;;;;9.68;4.57;;;-0.40;99.90;;;;;;4864428;29;20120;-75
2021/04/06 01:55:39;;;;;;;15.70;5.32;;;-0.40;99.90;;;;;;4879069;29;20057;-76
2021/04/06 01:58:06;;;;;;;15.15;5.15;;;-0.40;99.90;;;;;;4865049;29;20638;-76
2021/04/06 02:00:50;;;;;;;7.28;3.45;;;-0.40;99.90;;;;;;4859661;29;20435;-75
2021/04/06 02:03:17;;;;;;;9.00;3.92;;;-0.40;99.90;;;;;;4862022;29;20515;-77
2021/04/06 02:05:45;;;;;;;11.75;4.10;;;-0.50;99.90;;;;;;4877812;29;20131;-76
2021/04/06 02:08:17;;;;;;;11.82;4.15;;;-0.60;99.90;;;;;;4870238;29;20053;-76
2021/04/06 02:10:43;;;;;;;15.75;4.90;;;-0.70;99.90;;;;;;4864067;29;20041;-77
2021/04/06 02:13:15;;;;;;;10.38;4.03;;;-0.70;99.90;;;;;;4881221;29;20505;-75
2021/04/06 02:16:01;;;;;;;12.50;4.47;;;-0.70;99.90;;;;;;4885302;29;20108;-76
2021/04/06 02:18:30;;;;;;;12.93;5.45;;;-0.70;99.90;;;;;;4854063;29;20063;-76
2021/04/06 02:20:59;;;;;;;15.13;4.88;;;-0.60;99.90;;;;;;4866850;29;20061;-76
2021/04/06 02:23:34;;;;;;;10.82;4.70;;;-0.50;99.90;;;;;;4900191;29;20048;-76
2021/04/06 02:26:02;;;;;;;11.70;4.32;;;-0.50;99.90;;;;;;4898298;29;20147;-77
2021/04/06 02:28:28;;;;;;;13.45;4.45;;;-0.50;99.90;;;;;;4852422;29;20076;-77
2021/04/06 02:30:57;;;;;;;12.23;5.05;;;-0.50;99.90;;;;;;4883219;29;20056;-77
2021/04/06 02:33:29;;;;;;;12.43;5.32;;;-0.50;99.90;;;;;;4872790;29;20439;-76
2021/04/06 02:36:03;;;;;;;9.95;6.32;;;-0.40;99.90;;;;;;4883012;29;20442;-75
2021/04/06 02:38:33;;;;;;;9.10;4.75;;;-0.40;99.90;;;;;;4899232;29;20057;-76
2021/04/06 02:41:16;;;;;;;12.75;4.68;;;-0.40;99.90;;;;;;4883233;29;20131;-77
2021/04/06 02:43:53;;;;;;;17.52;5.85;;;-0.30;99.90;;;;;;4867511;29;20093;-73
2021/04/06 02:46:22;;;;;;;13.60;4.90;;;-0.30;99.90;;;;;;4865818;29;20049;-74
2021/04/06 02:48:50;;;;;;;13.73;4.80;;;-0.30;99.90;;;;;;4851733;29;20135;-74
2021/04/06 02:51:17;;;;;;;15.98;4.85;;;-0.40;99.90;;;;;;4882358;29;20118;-76
2021/04/06 02:53:47;;;;;;;8.60;5.03;;;-0.40;99.90;;;;;;4882017;29;20049;-76
2021/04/06 02:56:32;;;;;;;13.98;5.43;;;-0.40;99.90;;;;;;4882018;29;20352;-76
2021/04/06 02:59:15;;;;;;;17.02;5.68;;;-0.30;99.90;;;;;;4882470;29;20048;-75
2021/04/06 03:01:42;;;;;;;14.73;5.43;;;-0.30;99.90;;;;;;4895960;29;20056;-75
2021/04/06 03:04:26;;;;;;;9.95;4.60;;;-0.40;99.90;;;;;;4887723;29;20067;-75
2021/04/06 03:06:55;;;;;;;8.50;4.90;;;-0.40;99.90;;;;;;4862415;29;20095;-75
2021/04/06 03:09:23;;;;;;;9.65;4.28;;;-0.30;99.90;;;;;;4868565;29;20096;-76
2021/04/06 03:11:52;;;;;;;10.10;4.63;;;-0.30;99.90;;;;;;4872755;29;20151;-76
2021/04/06 03:14:25;;;;;;;17.13;5.43;;;-0.30;99.90;;;;;;4878634;29;20140;-75
2021/04/06 03:16:53;;;;;;;13.40;4.35;;;-0.30;99.90;;;;;;4865911;29;20086;-76
2021/04/06 03:19:30;;;;;;;14.13;4.32;;;-0.30;99.90;;;;;;4878543;29;20044;-76
2021/04/06 03:21:58;;;;;;;13.25;4.03;;;-0.30;99.90;;;;;;4880186;29;20155;-77
2021/04/06 03:24:28;;;;;;;14.60;4.20;;;-0.30;99.90;;;;;;4899131;29;20040;-76
2021/04/06 03:27:01;;;;;;;8.65;4.78;;;-0.20;99.90;;;;;;4882308;29;20053;-76
2021/04/06 03:29:28;;;;;;;7.72;4.07;;;-0.20;99.90;;;;;;4871368;29;20202;-74
2021/04/06 03:31:55;;;;;;;10.65;5.45;;;-0.20;99.90;;;;;;4881278;29;20131;-76
2021/04/06 03:34:28;;;;;;;9.70;4.32;;;-0.20;99.90;;;;;;4879457;29;20057;-75
2021/04/06 03:36:55;;;;;;;9.40;3.67;;;-0.30;99.90;;;;;;4860770;29;20072;-75
2021/04/06 03:39:21;;;;;;;8.68;3.50;;;-0.30;99.90;;;;;;4880042;29;20049;-74
2021/04/06 03:41:48;;;;;;;14.50;3.70;;;-0.30;99.90;;;;;;4879663;29;20053;-75
2021/04/06 03:44:15;;;;;;;7.72;3.45;;;-0.30;99.90;;;;;;4886554;29;20126;-75
2021/04/06 03:46:42;;;;;;;11.45;3.70;;;-0.20;99.90;;;;;;4848178;29;20060;-75
2021/04/06 03:49:24;;;;;;;12.00;3.88;;;-0.20;99.90;;;;;;4893357;29;20060;-76
2021/04/06 03:51:52;;;;;;;5.95;3.30;;;-0.20;99.90;;;;;;4881151;29;20152;-74
2021/04/06 03:55:08;;;;;;;12.23;4.28;;;-0.30;99.90;;;;;;4879796;29;20061;-75
2021/04/06 04:00:11;;;;;;;12.10;4.45;;;-0.20;99.90;;;;;;4847445;29;20023;-75
2021/04/06 04:02:37;;;;;;;14.63;4.95;;;-0.20;99.90;;;;;;4847527;29;20117;-76
2021/04/06 04:05:05;;;;;;;11.73;4.78;;;-0.20;99.90;;;;;;4858016;29;20064;-75
2021/04/06 04:07:36;;;;;;;14.43;6.07;;;-0.20;99.90;;;;;;4873422;29;20048;-76
2021/04/06 04:10:08;;;;;;;11.43;5.25;;;-0.20;99.90;;;;;;4877373;29;20053;-75
2021/04/06 04:12:35;;;;;;;7.95;4.75;;;-0.30;99.90;;;;;;4831628;29;20057;-74
2021/04/06 04:15:02;;;;;;;11.27;4.20;;;-0.20;99.90;;;;;;4877702;29;20077;-76
2021/04/06 04:17:29;;;;;;;6.40;3.35;;;-0.30;99.90;;;;;;4866877;29;20048;-76
2021/04/06 04:19:56;;;;;;;9.10;3.88;;;-0.30;99.90;;;;;;4862610;29;20057;-75
2021/04/06 04:22:22;;;;;;;9.85;3.30;;;-0.30;99.90;;;;;;4862411;29;20045;-75
2021/04/06 04:24:48;;;;;;;8.13;4.40;;;-0.30;99.90;;;;;;4863629;29;20057;-76
2021/04/06 04:27:15;;;;;;;12.02;4.15;;;-0.20;99.90;;;;;;4894234;29;20155;-77
2021/04/06 04:29:41;;;;;;;11.70;4.80;;;-0.20;99.90;;;;;;4876075;29;20426;-77
2021/04/06 04:32:13;;;;;;;7.93;3.30;;;-0.20;99.90;;;;;;4871645;29;20085;-80
2021/04/06 04:34:41;;;;;;;12.65;5.22;;;-0.20;99.90;;;;;;4879466;29;20245;-78
2021/04/06 04:37:07;;;;;;;11.38;4.90;;;-0.20;99.90;;;;;;4861102;29;20578;-78
2021/04/06 04:39:34;;;;;;;7.88;5.18;;;-0.20;99.90;;;;;;4882828;29;20492;-77
2021/04/06 04:42:00;;;;;;;15.30;6.72;;;-0.20;99.90;;;;;;4881756;29;20071;-78
2021/04/06 04:44:27;;;;;;;22.30;7.15;;;-0.20;99.90;;;;;;4864302;29;20491;-77
2021/04/06 04:46:53;;;;;;;8.90;5.13;;;-0.20;99.90;;;;;;4871215;29;20140;-77
2021/04/06 04:49:20;;;;;;;15.65;5.25;;;-0.20;99.90;;;;;;4887357;29;20057;-78
2021/04/06 04:51:47;;;;;;;12.32;5.97;;;-0.10;99.90;;;;;;4849064;29;20057;-77
2021/04/06 04:54:13;;;;;;;16.08;6.03;;;-0.10;99.90;;;;;;4871267;29;20056;-78
2021/04/06 04:56:40;;;;;;;13.50;5.40;;;-0.10;99.90;;;;;;4869528;29;20523;-80
2021/04/06 04:59:06;;;;;;;14.27;5.75;;;-0.20;99.90;;;;;;4855482;29;20107;-78
2021/04/06 05:01:33;;;;;;;15.70;6.10;;;-0.20;99.90;;;;;;4869183;29;20056;-79
2021/04/06 05:04:00;;;;;;;16.70;6.15;;;-0.10;99.90;;;;;;4884613;29;20060;-79
2021/04/06 05:06:26;;;;;;;14.93;6.13;;;-0.10;99.90;;;;;;4842623;29;20044;-80
2021/04/06 05:08:52;;;;;;;14.80;5.57;;;-0.10;99.90;;;;;;4853760;29;20067;-81
2021/04/06 05:11:19;;;;;;;15.15;6.70;;;-0.10;99.90;;;;;;4852045;29;20061;-79
2021/04/06 05:13:47;;;;;;;20.25;7.07;;;-0.10;99.90;;;;;;4869693;29;20064;-79
2021/04/06 05:16:13;;;;;;;19.67;7.00;;;-0.10;99.90;;;;;;4883245;29;20417;-78
2021/04/06 05:18:40;;;;;;;18.90;8.57;;;-0.10;99.90;;;;;;4886416;29;20101;-78
2021/04/06 05:21:06;;;;;;;19.33;7.45;;;-0.10;99.90;;;;;;4862627;29;20056;-79
2021/04/06 05:23:33;;;;;;;13.23;7.30;;;0.00;99.90;;;;;;4899671;29;20048;-79
2021/04/06 05:26:00;;;;;;;12.38;5.28;;;-0.10;99.90;;;;;;4866196;29;20089;-78
2021/04/06 05:28:26;;;;;;;10.32;5.22;;;-0.10;99.90;;;;;;4876482;29;20060;-79
2021/04/06 05:30:53;;;;;;;17.73;6.43;;;0.00;99.90;;;;;;4879020;29;20080;-79
2021/04/06 05:33:21;;;;;;;16.05;5.35;;;-0.10;99.90;;;;;;4853829;29;20143;-79
2021/04/06 05:35:50;;;;;;;12.02;5.18;;;0.00;99.90;;;;;;4879851;29;20409;-80
2021/04/06 05:38:17;;;;;;;9.27;5.00;;;0.00;99.90;;;;;;4871381;29;20549;-79
2021/04/06 05:40:44;;;;;;;12.40;5.53;;;0.00;99.90;;;;;;4871178;29;20060;-77
2021/04/06 05:43:14;;;;;;;12.35;5.40;;;0.10;99.90;;;;;;4891080;29;20056;-78
2021/04/06 05:45:45;;;;;;;11.85;6.07;;;0.00;99.90;;;;;;4856720;29;20151;-78
2021/04/06 05:48:15;;;;;;;12.82;5.10;;;0.00;99.90;;;;;;4874214;29;20056;-78
2021/04/06 05:50:45;;;;;;;9.35;4.65;;;0.00;99.90;;;;;;4875524;29;20048;-78
2021/04/06 05:53:13;;;;;;;11.95;4.82;;;0.00;99.90;;;;;;4852080;29;20067;-79
2021/04/06 05:55:39;;;;;;;15.20;5.45;;;0.00;99.90;;;;;;4883425;29;20072;-78
2021/04/06 05:58:10;;;;;;;10.85;4.60;;;0.00;99.90;;;;;;4873703;29;20139;-77
2021/04/06 06:00:37;;;;;;;12.65;5.07;;;0.10;99.90;;;;;;4895711;29;20151;-77
2021/04/06 06:03:06;;;;;;;13.43;4.25;;;0.10;99.90;;;;;;4875611;29;20045;-77
2021/04/06 06:05:32;;;;;;;10.77;4.60;;;0.10;99.90;;;;;;4874609;29;20052;-76
2021/04/06 06:08:02;;;;;;;15.60;5.28;;;0.10;99.90;;;;;;4883318;29;20053;-74
2021/04/06 06:10:31;;;;;;;18.80;5.63;;;0.10;99.90;;;;;;4860240;29;20074;-77
2021/04/06 06:13:19;;;;;;;16.00;5.47;;;0.10;99.90;;;;;;4875796;29;20053;-76
2021/04/06 06:16:22;;;;;;;20.27;4.78;;;0.10;99.90;;;;;;4877194;29;20048;-75
2021/04/06 06:19:04;;;;;;;10.70;3.50;;;0.10;99.90;;;;;;4872970;29;20072;-78
2021/04/06 06:21:48;;;;;;;16.90;4.78;;;0.30;99.90;;;;;;4874592;29;20064;-76
2021/04/06 06:24:30;;;;;;;10.80;4.38;;;0.30;99.90;;;;;;4871848;29;20048;-76
2021/04/06 06:26:58;;;;;;;11.13;3.97;;;0.20;99.90;;;;;;4875460;29;20112;-75
2021/04/06 06:29:41;;;;;;;13.93;4.25;;;0.30;99.90;;;;;;4863993;29;20052;-75
2021/04/06 06:32:27;;;;;;;15.20;4.85;;;0.20;99.90;;;;;;4872032;29;20049;-75
2021/04/06 06:34:54;;;;;;;9.90;4.47;;;0.40;99.90;;;;;;4834071;29;20057;-76
2021/04/06 06:37:26;;;;;;;16.98;5.13;;;0.60;99.90;;;;;;4831003;29;20055;-76
2021/04/06 06:39:54;;;;;;;12.95;4.32;;;0.80;99.90;;;;;;4863896;29;20132;-74
2021/04/06 06:42:23;;;;;;;23.40;10.07;;;0.80;99.90;;;;;;4877695;29;20592;-74
2021/04/06 06:44:50;;;;;;;15.57;4.38;;;0.70;99.90;;;;;;4883797;29;20064;-75
2021/04/06 06:47:24;;;;;;;18.67;5.07;;;0.60;99.90;;;;;;4873667;29;20057;-76
2021/04/06 06:49:53;;;;;;;14.43;5.60;;;0.50;99.90;;;;;;4878614;29;20053;-77
2021/04/06 06:52:19;;;;;;;20.55;6.65;;;0.50;99.90;;;;;;4866035;29;20371;-75
2021/04/06 06:54:46;;;;;;;23.25;6.28;;;0.40;99.90;;;;;;4871040;29;20064;-76
2021/04/06 06:57:16;;;;;;;24.17;6.80;;;0.40;99.90;;;;;;4895637;29;20579;-76
2021/04/06 06:59:46;;;;;;;17.75;5.88;;;0.40;99.90;;;;;;4848605;29;20512;-75
2021/04/06 07:02:26;;;;;;;23.10;6.28;;;0.30;99.90;;;;;;4865851;29;20151;-76
2021/04/06 07:05:08;;;;;;;14.32;5.43;;;0.20;99.90;;;;;;4856902;29;20343;-76
2021/04/06 07:08:08;;;;;;;20.60;7.22;;;0.10;99.90;;;;;;4862047;29;20092;-75
2021/04/06 07:10:40;;;;;;;28.42;6.57;;;0.20;99.90;;;;;;4868874;29;20084;-75
2021/04/06 07:13:20;;;;;;;23.55;6.32;;;0.20;99.90;;;;;;4879413;29;20059;-75
2021/04/06 07:15:48;;;;;;;18.98;5.80;;;0.40;99.90;;;;;;4895817;29;20389;-75
2021/04/06 07:18:17;;;;;;;25.73;6.30;;;0.40;99.90;;;;;;4895081;29;20044;-74
2021/04/06 07:20:51;;;;;;;23.42;5.05;;;0.50;99.90;;;;;;4870103;29;20057;-74
2021/04/06 07:23:35;;;;;;;15.45;4.93;;;0.50;99.90;;;;;;4882654;29;20128;-75
2021/04/06 07:26:14;;;;;;;19.98;4.82;;;0.50;99.90;;;;;;4855962;29;20068;-74
2021/04/06 07:28:41;;;;;;;12.23;3.97;;;0.40;99.90;;;;;;4863359;29;20197;-75
2021/04/06 07:31:10;;;;;;;15.13;4.65;;;0.20;99.90;;;;;;4861958;29;20124;-74
2021/04/06 07:33:39;;;;;;;29.50;5.50;;;0.30;99.90;;;;;;4852793;29;20285;-74
2021/04/06 07:36:09;;;;;;;20.73;5.20;;;0.40;99.90;;;;;;4881586;29;20063;-75
2021/04/06 07:38:58;;;;;;;19.95;6.70;;;0.50;99.90;;;;;;4850587;29;20052;-74
2021/04/06 07:41:29;;;;;;;9.93;4.28;;;0.60;99.90;;;;;;4861292;29;20171;-75
2021/04/06 07:43:57;;;;;;;20.08;6.03;;;0.60;99.90;;;;;;4892652;29;20555;-75
2021/04/06 07:46:33;;;;;;;22.25;5.57;;;0.60;99.90;;;;;;4869649;29;20052;-74
2021/04/06 07:49:22;;;;;;;27.10;6.88;;;0.60;99.90;;;;;;4866382;29;20067;-74
2021/04/06 07:51:51;;;;;;;12.32;4.85;;;0.70;99.90;;;;;;4878911;29;20061;-74
2021/04/06 07:54:23;;;;;;;26.48;6.32;;;0.60;99.90;;;;;;4877713;29;20310;-74
2021/04/06 07:57:04;;;;;;;23.80;5.70;;;0.60;99.90;;;;;;4878617;29;20147;-73
2021/04/06 07:59:34;;;;;;;28.38;6.35;;;0.60;99.90;;;;;;4863595;29;20040;-74
2021/04/06 08:02:01;;;;;;;31.75;6.57;;;0.70;99.90;;;;;;4875908;29;20495;-75
2021/04/06 08:04:36;;;;;;;15.65;6.47;;;0.80;99.90;;;;;;4878275;29;20052;-74
2021/04/06 08:07:23;;;;;;;17.23;5.00;;;0.90;99.90;;;;;;4853747;29;20116;-73
2021/04/06 08:09:54;;;;;;;13.02;4.35;;;1.30;99.90;;;;;;4854310;29;20456;-74
2021/04/06 08:12:28;;;;;;;15.88;4.40;;;1.50;99.90;;;;;;4860540;29;20060;-72
2021/04/06 08:15:12;;;;;;;16.83;5.47;;;1.40;99.90;;;;;;4860889;29;20076;-72
2021/04/06 08:17:42;;;;;;;18.08;4.22;;;1.50;99.90;;;;;;4879559;29;20304;-72
2021/04/06 08:20:17;;;;;;;14.40;4.85;;;1.80;99.90;;;;;;4881121;29;20215;-74
2021/04/06 08:22:47;;;;;;;17.63;4.70;;;2.10;99.90;;;;;;4859780;29;20053;-72
2021/04/06 08:25:20;;;;;;;19.38;6.20;;;2.10;99.90;;;;;;4879071;29;20053;-73
2021/04/06 08:27:51;;;;;;;24.83;5.15;;;1.90;99.90;;;;;;4899528;29;20467;-71
2021/04/06 08:30:27;;;;;;;17.45;6.00;;;1.60;99.90;;;;;;4885409;29;20614;-72
2021/04/06 08:32:59;;;;;;;14.15;3.47;;;1.40;99.90;;;;;;4892301;29;20053;-72
2021/04/06 08:38:20;;;;;;;12.93;3.40;;;1.40;99.90;;;;;;4864806;29;20155;-71
2021/04/06 08:40:55;;;;;;;22.88;5.47;;;1.70;99.90;;;;;;4879834;29;20052;-73
2021/04/06 08:43:41;;;;;;;18.13;3.92;;;1.80;99.90;;;;;;4885152;29;20065;-73
2021/04/06 08:46:23;;;;;;;15.27;3.55;;;2.00;99.90;;;;;;4876713;29;20083;-72
2021/04/06 08:48:52;;;;;;;17.58;3.83;;;2.40;99.90;;;;;;4881304;29;20170;-72
2021/04/06 08:51:27;;;;;;;13.57;3.33;;;2.30;99.90;;;;;;4884508;29;20065;-73
2021/04/06 08:54:01;;;;;;;14.13;4.20;;;2.20;99.90;;;;;;4891476;29;20057;-73
2021/04/06 08:56:36;;;;;;;23.35;4.60;;;2.00;99.90;;;;;;4860814;29;20475;-72
2021/04/06 08:59:23;;;;;;;19.90;4.70;;;1.90;99.90;;;;;;4868495;29;20549;-75
2021/04/06 09:01:57;;;;;;;20.75;4.80;;;1.70;99.90;;;;;;4867743;29;20147;-74
2021/04/06 09:04:31;;;;;;;10.30;2.55;;;1.90;99.90;;;;;;4896395;29;20497;-73
2021/04/06 09:06:58;;;;;;;13.65;3.53;;;2.70;99.90;;;;;;4849083;29;20059;-74
2021/04/06 09:09:26;;;;;;;14.27;3.50;;;2.70;99.90;;;;;;4866692;29;20071;-73
2021/04/06 09:11:56;;;;;;;14.18;3.03;;;2.60;99.90;;;;;;4864444;29;20438;-75
2021/04/06 09:14:25;;;;;;;13.73;3.75;;;2.30;99.90;;;;;;4864295;29;20053;-73
2021/04/06 09:16:53;;;;;;;18.45;4.55;;;2.10;99.90;;;;;;4870513;29;20120;-76
2021/04/06 09:19:22;;;;;;;10.18;3.90;;;2.20;99.90;;;;;;4892749;29;20104;-76
2021/04/06 09:21:51;;;;;;;15.75;4.05;;;2.20;99.90;;;;;;4863107;29;20061;-75
2021/04/06 09:24:20;;;;;;;10.23;3.47;;;2.50;99.90;;;;;;4867274;29;20535;-75
2021/04/06 09:26:49;;;;;;;15.20;3.38;;;2.50;99.90;;;;;;4875317;29;20053;-75
2021/04/06 09:29:21;;;;;;;9.48;3.13;;;2.30;99.90;;;;;;4886161;29;20068;-74
2021/04/06 09:31:51;;;;;;;13.85;3.38;;;2.30;99.90;;;;;;4895116;29;20532;-75
2021/04/06 09:34:19;;;;;;;16.08;3.38;;;2.50;99.90;;;;;;4892453;29;20127;-74
2021/04/06 09:37:07;;;;;;;25.45;3.35;;;2.90;99.90;;;;;;4884733;29;20088;-74
2021/04/06 09:39:36;;;;;;;18.65;3.70;;;2.80;99.90;;;;;;4891805;29;20536;-74
2021/04/06 09:42:04;;;;;;;10.75;2.85;;;3.00;99.90;;;;;;4879894;29;20060;-74
2021/04/06 09:44:38;;;;;;;15.20;3.67;;;3.20;99.90;;;;;;4871368;29;20528;-75
2021/04/06 09:47:15;;;;;;;20.80;5.53;;;3.50;99.90;;;;;;4880005;29;20058;-75
2021/04/06 09:49:47;;;;;;;13.45;2.95;;;3.30;99.90;;;;;;4871556;29;20053;-75
2021/04/06 09:52:18;;;;;;;7.45;2.30;;;3.00;99.90;;;;;;4868260;29;20116;-73
2021/04/06 09:54:51;;;;;;;14.63;3.08;;;2.80;99.90;;;;;;4886107;29;20060;-74
2021/04/06 09:57:42;;;;;;;18.35;3.92;;;2.70;99.90;;;;;;4874405;29;20699;-76
2021/04/06 10:00:12;;;;;;;10.50;2.08;;;2.80;99.90;;;;;;4883484;29;20116;-76
2021/04/06 10:02:41;;;;;;;12.05;3.95;;;2.70;99.90;;;;;;4862647;29;20063;-74
2021/04/06 10:05:19;;;;;;;11.75;3.35;;;2.10;99.90;;;;;;4861926;29;20057;-77
2021/04/06 10:07:48;;;;;;;10.95;2.33;;;1.50;99.90;;;;;;4877843;29;20164;-74
2021/04/06 10:10:24;;;;;;;7.28;2.17;;;1.20;99.90;;;;;;4867309;29;20085;-75
2021/04/06 10:12:51;;;;;;;8.05;2.17;;;1.20;99.90;;;;;;4882528;29;20526;-74
2021/04/06 10:15:19;;;;;;;7.03;2.22;;;1.30;99.90;;;;;;4881205;29;20048;-76
2021/04/06 10:17:46;;;;;;;13.10;3.05;;;0.90;99.90;;;;;;4898719;29;20056;-76
2021/04/06 10:20:19;;;;;;;9.05;3.05;;;0.60;99.90;;;;;;4888056;29;20060;-75
2021/04/06 10:22:50;;;;;;;8.55;3.83;;;0.30;99.90;;;;;;4849699;29;20060;-76
2021/04/06 10:25:20;;;;;;;14.35;3.10;;;0.30;99.90;;;;;;4879476;29;20084;-74
2021/04/06 10:27:56;;;;;;;13.88;3.30;;;0.70;99.90;;;;;;4867031;29;20076;-76
2021/04/06 10:30:45;;;;;;;13.00;2.78;;;1.20;99.90;;;;;;4855115;29;20059;-76
2021/04/06 10:33:13;;;;;;;6.63;2.92;;;1.60;99.90;;;;;;4883993;29;20571;-77
2021/04/06 10:35:53;;;;;;;13.02;2.60;;;2.00;99.90;;;;;;4883619;29;20108;-77
2021/04/06 10:38:26;;;;;;;7.63;2.67;;;2.50;99.90;;;;;;4886457;29;20053;-78
2021/04/06 10:41:06;;;;;;;6.80;2.45;;;2.50;99.90;;;;;;4887711;29;20056;-78
2021/04/06 10:43:37;;;;;;;9.55;2.60;;;2.60;99.90;;;;;;4870657;29;20037;-78
2021/04/06 10:46:13;;;;;;;7.78;2.38;;;3.10;99.90;;;;;;4900363;29;20518;-78
2021/04/06 10:48:44;;;;;;;10.05;2.80;;;3.60;99.90;;;;;;4880738;29;20044;-77
2021/04/06 10:51:24;;;;;;;9.60;2.63;;;3.60;99.90;;;;;;4885357;29;20056;-80
2021/04/06 10:54:01;;;;;;;7.25;2.17;;;3.30;99.90;;;;;;4875187;29;20112;-78
2021/04/06 10:56:39;;;;;;;9.70;2.95;;;2.60;99.90;;;;;;4868216;29;20670;-78
2021/04/06 10:59:08;;;;;;;13.35;3.20;;;2.20;99.90;;;;;;4851381;29;20139;-77
2021/04/06 11:01:43;;;;;;;13.05;2.67;;;2.10;99.90;;;;;;4882363;29;20056;-78
2021/04/06 11:04:17;;;;;;;16.48;3.20;;;2.60;99.90;;;;;;4895783;29;20548;-76
2021/04/06 11:10:12;;;;;;;15.25;3.28;;;2.80;99.90;;;;;;4888496;29;20100;-76
2021/04/06 11:12:42;;;;;;;10.40;3.58;;;1.30;99.90;;;;;;4879228;29;20370;-74
2021/04/06 11:15:09;;;;;;;7.75;2.80;;;0.60;99.90;;;;;;4869873;29;20067;-74
2021/04/06 11:17:35;;;;;;;10.48;3.53;;;0.50;99.90;;;;;;4880910;29;20067;-75
2021/04/06 11:20:02;;;;;;;9.23;3.60;;;0.50;99.90;;;;;;4885376;29;20087;-76
2021/04/06 11:22:28;;;;;;;15.05;4.10;;;0.40;99.90;;;;;;4873683;29;20186;-76
2021/04/06 11:24:55;;;;;;;11.65;4.20;;;0.50;99.90;;;;;;4861430;29;20512;-74
2021/04/06 11:27:21;;;;;;;10.55;3.50;;;0.60;99.90;;;;;;4868263;29;20053;-74
2021/04/06 11:29:49;;;;;;;7.90;2.75;;;0.80;99.90;;;;;;4861188;29;20150;-74
2021/04/06 11:32:19;;;;;;;4.43;2.55;;;1.00;99.90;;;;;;4880418;29;20062;-74
2021/04/06 11:34:46;;;;;;;9.45;2.53;;;1.30;99.90;;;;;;4884724;29;20057;-75
2021/04/06 11:37:13;;;;;;;8.70;2.17;;;1.90;99.90;;;;;;4895301;29;20339;-74
2021/04/06 11:39:44;;;;;;;4.10;2.20;;;2.50;99.90;;;;;;4880712;29;20504;-75
2021/04/06 11:42:12;;;;;;;6.85;2.40;;;3.20;99.90;;;;;;4865768;29;20063;-76
2021/04/06 11:44:38;;;;;;;7.18;2.53;;;3.50;99.90;;;;;;4848626;29;20269;-74
2021/04/06 11:47:06;;;;;;;9.13;2.35;;;3.40;99.90;;;;;;4875209;29;20148;-74
2021/04/06 11:49:33;;;;;;;8.88;2.83;;;3.20;99.90;;;;;;4865309;29;20131;-75
2021/04/06 11:52:00;;;;;;;10.00;3.03;;;3.10;99.90;;;;;;4842965;29;20060;-74
2021/04/06 11:54:27;;;;;;;10.20;4.43;;;2.80;99.90;;;;;;4876429;29;20087;-74
2021/04/06 11:56:53;;;;;;;10.38;3.10;;;2.60;99.90;;;;;;4876889;29;20057;-75
2021/04/06 11:59:20;;;;;;;6.50;2.92;;;2.10;99.90;;;;;;4870182;29;20298;-76
2021/04/06 12:01:47;;;;;;;6.07;2.42;;;1.90;99.90;;;;;;4875793;29;20045;-76
2021/04/06 12:04:15;;;;;;;12.50;3.90;;;2.10;99.90;;;;;;4871714;29;20147;-78
2021/04/06 12:06:43;;;;;;;6.68;2.15;;;2.60;99.90;;;;;;4864670;29;20052;-78
2021/04/06 12:09:11;;;;;;;12.70;2.45;;;3.10;99.90;;;;;;4880601;29;20052;-79
2021/04/06 12:11:38;;;;;;;6.60;1.20;;;3.60;99.90;;;;;;4889773;29;20045;-76
2021/04/06 12:14:06;;;;;;;6.28;1.80;;;3.80;99.90;;;;;;4868515;29;20535;-76
2021/04/06 12:16:32;;;;;;;9.70;2.65;;;3.80;99.90;;;;;;4899030;29;20056;-76
2021/04/06 12:18:59;;;;;;;6.72;1.70;;;3.30;99.90;;;;;;4887940;29;20067;-77
2021/04/06 12:21:26;;;;;;;7.05;1.80;;;3.20;99.90;;;;;;4873997;29;20045;-77
2021/04/06 12:23:53;;;;;;;8.75;2.38;;;3.10;99.90;;;;;;4903055;29;21025;-79
2021/04/06 12:26:20;;;;;;;8.77;2.97;;;2.80;99.90;;;;;;4871930;29;20045;-78
2021/04/06 12:28:46;;;;;;;5.05;1.92;;;2.80;99.90;;;;;;4852830;29;20052;-79
2021/04/06 12:31:12;;;;;;;10.95;2.65;;;2.80;99.90;;;;;;4872242;29;20124;-78
2021/04/06 12:33:39;;;;;;;5.32;2.40;;;2.60;99.90;;;;;;4887432;29;20061;-80
2021/04/06 12:36:06;;;;;;;9.35;2.38;;;2.50;99.90;;;;;;4888241;29;20056;-80
2021/04/06 12:38:32;;;;;;;6.18;2.47;;;2.40;99.90;;;;;;4870846;29;20056;-80
2021/04/06 12:40:59;;;;;;;7.47;2.63;;;2.60;99.90;;;;;;4874247;29;20052;-79
2021/04/06 12:43:25;;;;;;;8.35;2.78;;;2.60;99.90;;;;;;4887972;29;20053;-79
2021/04/06 12:45:52;;;;;;;12.65;3.78;;;2.60;99.90;;;;;;4872991;29;20141;-79
2021/04/06 12:48:18;;;;;;;4.55;2.78;;;2.60;99.90;;;;;;4883509;29;20068;-77
2021/04/06 12:50:45;;;;;;;4.90;3.35;;;3.00;99.90;;;;;;4890305;29;20052;-76
2021/04/06 12:53:11;;;;;;;10.60;9.60;;;3.30;99.90;;;;;;4890253;29;20858;-76
2021/04/06 12:55:38;;;;;;;14.27;13.30;;;3.00;99.90;;;;;;4881838;29;20487;-75
2021/04/06 12:58:05;;;;;;;15.18;13.85;;;2.90;99.90;;;;;;4870577;29;20041;-77
2021/04/06 13:00:31;;;;;;;16.45;15.23;;;2.80;99.90;;;;;;4863146;29;20049;-76
2021/04/06 13:02:58;;;;;;;13.63;12.45;;;2.70;99.90;;;;;;4891705;29;20075;-76
2021/04/06 13:05:24;;;;;;;17.60;16.42;;;2.90;99.90;;;;;;4893665;29;20048;-77
2021/04/06 13:07:52;;;;;;;18.30;16.83;;;2.90;99.90;;;;;;4891015;29;20550;-78
2021/04/06 13:10:20;;;;;;;16.27;14.85;;;2.90;99.90;;;;;;4858991;29;20060;-79
2021/04/06 13:12:46;;;;;;;17.02;16.02;;;2.90;99.90;;;;;;4874853;29;20049;-76